Time;durP1;ratioP1;P1;durP2;ratioP2;P2;SDS_P1;SDS_P2;PMS_P1;PMS_P2;Temp;Humidity;BMP_temperature;BMP_pressure;BME280_temperature;BME280_humidity;BME280_pressure;Samples;Min_cycle;Max_cycle;Signal;HPM_P1;HPM_P2
2023/07/11 00:00:45;;;;;;;;;3.00;3.00;;;;;26.28;38.64;100872.03;4858051;29;47472;-85
2023/07/11 00:03:11;;;;;;;;;3.00;2.67;;;;;26.25;38.64;100873.06;4875258;29;45356;-84
2023/07/11 00:05:40;;;;;;;;;3.33;3.33;;;;;26.21;38.92;100868.72;4876013;29;45470;-83
2023/07/11 00:08:07;;;;;;;;;5.00;4.00;;;;;26.14;39.24;100859.09;4876389;29;44785;-84
2023/07/11 00:10:33;;;;;;;;;4.00;3.00;;;;;26.14;39.28;100876.31;4875556;29;47438;-84
2023/07/11 00:12:58;;;;;;;;;3.33;3.33;;;;;26.09;39.38;100862.00;4873779;29;45436;-83
2023/07/11 00:15:31;;;;;;;;;2.33;1.33;;;;;26.18;39.48;100862.53;4873471;29;45530;-84
2023/07/11 00:17:56;;;;;;;;;4.00;3.67;;;;;26.09;39.50;100858.41;4874524;29;45594;-83
2023/07/11 00:20:24;;;;;;;;;3.00;3.00;;;;;26.08;39.83;100853.94;4876007;29;46075;-83
2023/07/11 00:22:50;;;;;;;;;1.33;1.33;;;;;26.05;39.96;100852.22;4874375;29;45506;-83
2023/07/11 00:25:15;;;;;;;;;2.33;1.33;;;;;26.04;39.64;100857.78;4876043;29;45398;-83
2023/07/11 00:27:41;;;;;;;;;5.33;3.33;;;;;26.02;40.11;100855.09;4875428;29;45508;-84
2023/07/11 00:30:10;;;;;;;;;3.33;3.33;;;;;26.07;39.80;100863.06;4873639;29;45428;-83
2023/07/11 00:32:36;;;;;;;;;3.00;3.00;;;;;26.02;40.63;100849.66;4873715;29;45541;-84
2023/07/11 00:35:02;;;;;;;;;2.67;2.67;;;;;25.93;40.46;100850.09;4872746;29;45447;-83
2023/07/11 00:37:29;;;;;;;;;4.00;2.33;;;;;26.02;40.09;100855.09;4856755;29;45717;-83
2023/07/11 00:39:55;;;;;;;;;3.00;3.00;;;;;25.99;40.20;100854.38;4858795;29;46529;-83
2023/07/11 00:42:20;;;;;;;;;2.33;2.33;;;;;25.98;40.39;100853.50;4858895;29;45237;-82
2023/07/11 00:44:57;;;;;;;;;3.33;3.00;;;;;26.06;40.08;100854.00;4858777;29;45219;-82
2023/07/11 00:47:26;;;;;;;;;3.00;3.00;;;;;26.02;40.27;100846.94;4873517;29;45425;-83
2023/07/11 00:50:05;;;;;;;;;3.33;3.33;;;;;26.01;40.29;100847.88;4858106;29;47631;-83
2023/07/11 00:52:37;;;;;;;;;3.00;2.67;;;;;25.95;40.18;100850.91;4873258;29;45340;-82
2023/07/11 00:55:10;;;;;;;;;3.00;3.00;;;;;25.97;40.46;100845.38;4872852;29;45450;-81
2023/07/11 00:57:40;;;;;;;;;2.33;1.33;;;;;25.93;40.18;100848.28;4872841;29;45455;-83
2023/07/11 01:00:07;;;;;;;;;2.67;1.67;;;;;25.88;40.43;100843.97;4873895;29;45675;-83
2023/07/11 01:02:34;;;;;;;;;3.67;3.33;;;;;25.91;40.46;100857.47;4856812;29;45662;-83
2023/07/11 01:05:01;;;;;;;;;3.67;3.00;;;;;25.90;40.54;100850.25;4856097;29;45290;-84
2023/07/11 01:07:30;;;;;;;;;6.33;3.00;;;;;25.87;40.37;100844.91;4856411;29;45643;-84
2023/07/11 01:09:58;;;;;;;;;3.67;3.67;;;;;25.78;40.53;100839.91;4856727;29;46835;-82
2023/07/11 01:12:25;;;;;;;;;4.00;2.67;;;;;25.84;40.94;100845.94;4840517;29;45477;-82
2023/07/11 01:14:51;;;;;;;;;2.33;2.33;;;;;25.73;40.76;100841.03;4856413;29;45482;-83
2023/07/11 01:17:24;;;;;;;;;4.67;4.67;;;;;25.80;40.81;100838.88;4858217;29;45363;-81
2023/07/11 01:19:50;;;;;;;;;5.33;5.00;;;;;25.75;40.91;100841.81;4858354;29;47137;-83
2023/07/11 01:22:15;;;;;;;;;4.00;4.00;;;;;25.70;41.00;100838.44;4857095;29;46458;-83
2023/07/11 01:24:41;;;;;;;;;3.33;3.33;;;;;25.71;41.21;100845.66;4857668;29;45425;-83
2023/07/11 01:27:07;;;;;;;;;2.33;2.33;;;;;25.69;41.38;100842.13;4874537;29;45440;-83
2023/07/11 01:29:33;;;;;;;;;6.67;5.00;;;;;25.70;41.65;100843.88;4856600;29;46613;-83
2023/07/11 01:31:59;;;;;;;;;4.67;3.67;;;;;25.59;41.42;100834.44;4856681;29;45518;-82
2023/07/11 01:34:25;;;;;;;;;2.67;2.67;;;;;25.61;41.58;100836.16;4855764;29;45442;-83
2023/07/11 01:36:50;;;;;;;;;4.67;4.67;;;;;25.55;42.16;100833.69;4873338;29;45340;-83
2023/07/11 01:39:16;;;;;;;;;6.00;4.00;;;;;25.49;41.56;100831.25;4857099;29;47826;-84
2023/07/11 01:41:42;;;;;;;;;4.00;4.00;;;;;25.49;41.98;100839.41;4857280;29;45402;-84
2023/07/11 01:44:13;;;;;;;;;3.33;3.33;;;;;25.46;42.29;100821.41;4859377;29;44719;-83
2023/07/11 01:46:38;;;;;;;;;5.67;4.67;;;;;25.39;42.56;100824.47;4874963;29;45515;-82
2023/07/11 01:49:05;;;;;;;;;5.67;4.00;;;;;25.44;42.49;100826.03;4856601;29;47202;-83
2023/07/11 01:51:31;;;;;;;;;2.67;2.67;;;;;25.35;42.57;100816.47;4856431;29;45376;-83
2023/07/11 01:53:57;;;;;;;;;4.33;4.33;;;;;25.33;42.69;100821.09;4857818;29;44736;-83
2023/07/11 01:56:22;;;;;;;;;3.33;2.33;;;;;25.27;42.61;100813.22;4856496;29;44886;-84
2023/07/11 01:58:48;;;;;;;;;3.67;3.67;;;;;25.24;42.72;100810.63;4871872;29;45871;-84
2023/07/11 02:01:14;;;;;;;;;3.67;3.67;;;;;25.28;42.89;100819.53;4855399;29;45341;-84
2023/07/11 02:03:39;;;;;;;;;4.00;4.00;;;;;25.27;43.06;100813.22;4856134;29;45342;-84
2023/07/11 02:06:05;;;;;;;;;5.00;5.00;;;;;25.25;43.03;100815.13;4854691;29;45547;-83
2023/07/11 02:08:30;;;;;;;;;5.00;5.00;;;;;25.24;43.25;100816.06;4855404;29;46671;-83
2023/07/11 02:10:56;;;;;;;;;6.00;5.00;;;;;25.19;43.20;100799.03;4855515;29;45480;-83
2023/07/11 02:13:25;;;;;;;;;5.00;5.00;;;;;25.29;43.49;100807.72;4872479;29;45497;-83
2023/07/11 02:15:53;;;;;;;;;3.33;2.67;;;;;25.23;43.60;100803.41;4872056;29;45464;-83
2023/07/11 02:18:19;;;;;;;;;6.00;4.67;;;;;25.15;43.90;100803.72;4854894;29;47606;-83
2023/07/11 02:20:45;;;;;;;;;4.00;4.00;;;;;25.09;44.16;100790.41;4854753;29;45424;-83
2023/07/11 02:23:13;;;;;;;;;4.00;4.00;;;;;25.11;43.86;100791.22;4871674;29;45372;-83
2023/07/11 02:25:39;;;;;;;;;3.00;3.00;;;;;25.04;43.94;100784.28;4839924;29;44929;-84
2023/07/11 02:28:05;;;;;;;;;4.33;4.33;;;;;25.07;44.23;100784.16;4871456;29;46046;-84
2023/07/11 02:30:32;;;;;;;;;6.33;5.00;;;;;25.05;44.38;100786.06;4855385;29;45699;-84
2023/07/11 02:32:57;;;;;;;;;4.67;4.00;;;;;25.00;44.54;100788.09;4854019;29;44778;-82
2023/07/11 02:35:24;;;;;;;;;3.67;3.67;;;;;25.02;44.52;100785.31;4852320;29;45336;-84
2023/07/11 02:37:52;;;;;;;;;5.00;5.00;;;;;25.02;44.60;100780.75;4866592;29;47100;-84
2023/07/11 02:40:18;;;;;;;;;4.00;4.00;;;;;24.97;45.08;100790.09;4866895;29;45563;-84
2023/07/11 02:42:44;;;;;;;;;4.00;4.00;;;;;24.95;44.60;100782.88;4869626;29;45532;-84
2023/07/11 02:45:10;;;;;;;;;5.00;5.00;;;;;24.91;45.35;100773.06;4868610;29;45528;-83
2023/07/11 02:47:35;;;;;;;;;7.00;6.00;;;;;24.88;45.49;100766.88;4868290;29;47238;-84
2023/07/11 02:50:00;;;;;;;;;5.67;4.67;;;;;24.86;45.12;100766.06;4870866;29;45384;-84
2023/07/11 02:52:30;;;;;;;;;4.33;4.33;;;;;24.85;45.49;100761.59;4871065;29;45701;-84
2023/07/11 02:54:55;;;;;;;;;3.67;3.67;;;;;24.83;45.71;100768.94;4869404;29;45448;-84
2023/07/11 02:57:21;;;;;;;;;7.67;4.67;;;;;24.83;45.55;100767.09;4870215;29;46145;-82
2023/07/11 02:59:46;;;;;;;;;4.33;4.00;;;;;24.80;45.09;100764.50;4871419;29;45486;-82
2023/07/11 03:02:12;;;;;;;;;3.33;3.33;;;;;24.78;45.75;100760.09;4872208;29;45539;-84
2023/07/11 03:04:37;;;;;;;;;5.33;4.00;;;;;24.77;45.59;100756.50;4871405;29;45402;-83
2023/07/11 03:07:06;;;;;;;;;4.00;4.00;;;;;24.82;45.86;100754.44;4869803;29;47377;-83
2023/07/11 03:09:32;;;;;;;;;5.00;5.00;;;;;24.79;45.53;100746.44;4870792;29;45407;-84
2023/07/11 03:11:58;;;;;;;;;4.00;3.00;;;;;24.80;45.66;100753.63;4870486;29;45825;-84
2023/07/11 03:14:23;;;;;;;;;5.00;4.33;;;;;24.82;45.81;100761.72;4869585;29;45429;-83
2023/07/11 03:16:54;;;;;;;;;3.33;3.33;;;;;24.83;45.62;100756.22;4870512;29;45954;-83
2023/07/11 03:19:20;;;;;;;;;4.67;4.67;;;;;24.82;45.64;100757.16;4868889;29;45471;-83
2023/07/11 03:21:49;;;;;;;;;4.00;4.00;;;;;24.81;45.93;100743.66;4869512;29;45387;-83
2023/07/11 03:24:15;;;;;;;;;6.00;4.33;;;;;24.81;45.78;100740.94;4869698;29;45389;-82
2023/07/11 03:26:47;;;;;;;;;3.67;3.67;;;;;24.74;46.20;100743.00;4868497;29;45571;-84
2023/07/11 03:29:14;;;;;;;;;4.67;4.67;;;;;24.75;46.17;100745.69;4870150;29;45796;-83
2023/07/11 03:31:41;;;;;;;;;3.00;3.00;;;;;24.71;46.18;100737.72;4871932;29;45389;-84
2023/07/11 03:34:06;;;;;;;;;4.33;4.33;;;;;24.71;46.31;100735.00;4870538;29;45498;-84
2023/07/11 03:36:32;;;;;;;;;5.00;5.00;;;;;24.69;46.53;100734.19;4868714;29;45433;-84
2023/07/11 03:38:58;;;;;;;;;5.67;5.00;;;;;24.69;46.39;100734.19;4869404;29;45426;-83
2023/07/11 03:41:23;;;;;;;;;5.00;5.00;;;;;24.66;46.86;100735.22;4870593;29;44937;-84
2023/07/11 03:43:49;;;;;;;;;3.67;2.67;;;;;24.62;46.55;100727.25;4871917;29;45479;-82
2023/07/11 03:46:14;;;;;;;;;3.00;3.00;;;;;24.62;46.60;100727.25;4869532;29;47769;-83
2023/07/11 03:48:40;;;;;;;;;5.33;4.33;;;;;24.57;47.12;100721.16;4869846;29;45344;-83
2023/07/11 03:51:05;;;;;;;;;5.00;5.00;;;;;24.58;46.96;100720.19;4868439;29;45399;-83
2023/07/11 03:53:31;;;;;;;;;4.67;4.67;;;;;24.49;47.07;100714.16;4867992;29;44790;-83
2023/07/11 03:55:56;;;;;;;;;3.67;3.33;;;;;24.48;47.61;100728.72;4867376;29;46908;-82
2023/07/11 03:58:26;;;;;;;;;0.00;0.00;;;;;24.48;47.43;100720.56;4868553;29;45316;-82
2023/07/11 04:00:51;;;;;;;;;5.67;5.67;;;;;24.40;47.54;100722.75;4870187;29;45474;-82
2023/07/11 04:03:16;;;;;;;;;6.00;6.00;;;;;24.37;48.00;100712.00;4870124;29;45453;-83
2023/07/11 04:05:42;;;;;;;;;4.00;4.00;;;;;24.34;47.73;100706.72;4868876;29;46877;-83
2023/07/11 04:08:09;;;;;;;;;7.00;5.00;;;;;24.42;47.99;100715.41;4869146;29;45961;-83
2023/07/11 04:10:35;;;;;;;;;4.33;4.33;;;;;24.35;47.96;100712.06;4856150;29;45468;-83
2023/07/11 04:13:02;;;;;;;;;5.33;4.00;;;;;24.31;48.39;100710.44;4871716;29;45294;-83
2023/07/11 04:15:28;;;;;;;;;4.33;4.33;;;;;24.30;48.58;100714.09;4872958;29;45323;-83
2023/07/11 04:17:53;;;;;;;;;1.00;1.00;;;;;24.33;48.68;100715.81;4872311;29;45338;-83
2023/07/11 04:20:19;;;;;;;;;6.00;4.67;;;;;24.30;48.71;100711.41;4871887;29;45321;-83
2023/07/11 04:22:44;;;;;;;;;4.00;4.00;;;;;24.30;48.47;100711.41;4871895;29;45317;-82
2023/07/11 04:25:12;;;;;;;;;5.33;4.67;;;;;24.32;49.10;100720.38;4872020;29;48548;-83
2023/07/11 04:27:40;;;;;;;;;6.00;3.00;;;;;24.35;49.15;100709.34;4872981;29;45395;-83
2023/07/11 04:30:07;;;;;;;;;6.33;5.33;;;;;24.29;49.20;100712.31;4872054;29;45384;-83
2023/07/11 04:32:33;;;;;;;;;4.33;4.33;;;;;24.31;49.17;100718.56;4872265;29;45364;-83
2023/07/11 04:34:58;;;;;;;;;4.00;4.00;;;;;24.31;48.69;100709.56;4870702;29;48902;-83
2023/07/11 04:37:24;;;;;;;;;5.00;5.00;;;;;24.36;49.61;100715.69;4870605;29;45695;-83
2023/07/11 04:39:49;;;;;;;;;5.00;4.67;;;;;24.39;49.40;100709.22;4872404;29;45364;-83
2023/07/11 04:42:16;;;;;;;;;6.33;6.33;;;;;24.45;49.34;100698.94;4870400;29;45381;-83
2023/07/11 04:44:42;;;;;;;;;4.67;4.67;;;;;24.43;49.29;100706.28;4870024;29;47160;-83
2023/07/11 04:47:07;;;;;;;;;3.67;3.67;;;;;24.40;49.07;100709.16;4871639;29;45517;-83
2023/07/11 04:49:33;;;;;;;;;5.33;5.33;;;;;24.44;48.77;100718.94;4873932;29;45472;-83
2023/07/11 04:51:58;;;;;;;;;3.67;3.67;;;;;24.46;48.56;100719.75;4874847;29;45471;-82
2023/07/11 04:54:25;;;;;;;;;6.67;5.33;;;;;24.51;48.24;100723.19;4871368;29;45552;-82
2023/07/11 04:56:56;;;;;;;;;5.00;5.00;;;;;24.64;49.64;100722.63;4873299;29;45378;-83
2023/07/11 04:59:25;;;;;;;;;6.67;5.00;;;;;24.61;49.27;100725.50;4873558;29;45435;-83
2023/07/11 05:01:51;;;;;;;;;7.33;6.00;;;;;24.62;48.97;100721.81;4873948;29;44953;-84
2023/07/11 05:04:17;;;;;;;;;8.00;6.67;;;;;24.74;48.85;100721.25;4873632;29;45468;-84
2023/07/11 05:06:47;;;;;;;;;3.67;3.67;;;;;24.87;48.99;100717.03;4872505;29;45418;-84
2023/07/11 05:09:15;;;;;;;;;5.00;5.00;;;;;25.00;48.17;100721.91;4872824;29;45524;-83
2023/07/11 05:11:41;;;;;;;;;6.67;6.33;;;;;25.13;48.55;100717.69;4872122;29;45546;-84
2023/07/11 05:14:06;;;;;;;;;4.67;3.00;;;;;25.29;47.84;100723.31;4873462;29;45371;-84
2023/07/11 05:16:32;;;;;;;;;5.33;5.33;;;;;25.44;47.56;100717.13;4871285;29;45384;-83
2023/07/11 05:18:58;;;;;;;;;8.00;6.00;;;;;25.55;47.45;100720.22;4872363;29;45432;-84
2023/07/11 05:21:27;;;;;;;;;5.67;5.67;;;;;25.79;46.99;100721.78;4872050;29;45434;-84
2023/07/11 05:23:56;;;;;;;;;6.67;4.67;;;;;25.85;47.09;100716.03;4871811;29;47459;-84
2023/07/11 05:26:22;;;;;;;;;3.00;3.00;;;;;25.97;46.78;100711.84;4873782;29;45410;-84
2023/07/11 05:28:51;;;;;;;;;6.67;5.00;;;;;26.09;46.44;100701.19;4870735;29;45373;-84
2023/07/11 05:31:17;;;;;;;;;6.33;4.67;;;;;26.24;46.34;100693.19;4873010;29;45512;-84
2023/07/11 05:33:43;;;;;;;;;7.33;5.67;;;;;26.35;46.38;100694.38;4871382;29;47691;-85
2023/07/11 05:36:40;;;;;;;;;5.67;4.33;;;;;26.63;45.64;100708.47;4871004;29;45598;-83
2023/07/11 05:39:16;;;;;;;;;4.00;4.00;;;;;26.75;45.05;100699.63;4872935;29;45433;-83
2023/07/11 05:41:47;;;;;;;;;4.00;3.33;;;;;26.84;45.32;100696.38;4869824;29;45736;-84
2023/07/11 05:44:14;;;;;;;;;4.67;4.00;;;;;26.84;44.83;100682.72;4870671;29;47501;-87
2023/07/11 05:46:43;;;;;;;;;3.67;3.67;;;;;27.00;44.56;100679.16;4857146;29;45545;-86
2023/07/11 05:49:09;;;;;;;;;5.67;4.00;;;;;27.00;45.06;100701.00;4857236;29;45373;-87
2023/07/11 05:51:39;;;;;;;;;8.67;6.00;;;;;27.07;44.70;100696.97;4873118;29;45301;-87
2023/07/11 05:54:05;;;;;;;;;6.67;4.67;;;;;27.11;44.89;100704.03;4892115;29;46912;-86
2023/07/11 05:56:30;;;;;;;;;4.00;4.00;;;;;27.11;44.64;100688.53;4879459;29;45521;-86
2023/07/11 05:58:57;;;;;;;;;5.33;5.00;;;;;27.12;44.47;100692.13;4878984;29;45495;-86
2023/07/11 06:18:18;;;;;;;;;5.00;5.00;;;;;28.08;42.67;100685.72;4858425;29;45497;-86
2023/07/11 06:20:44;;;;;;;;;5.00;5.00;;;;;28.02;43.26;100680.63;4857475;29;45752;-87
2023/07/11 06:23:12;;;;;;;;;7.00;4.67;;;;;28.19;42.81;100692.41;4857835;29;44916;-87
2023/07/11 06:25:38;;;;;;;;;6.33;5.67;;;;;28.11;42.73;100676.44;4856880;29;45529;-86
2023/07/11 06:28:11;;;;;;;;;9.67;7.00;;;;;28.24;42.60;100684.81;4870055;29;47205;-87
2023/07/11 06:30:43;;;;;;;;;7.00;7.00;;;;;28.31;42.89;100688.91;4855941;29;44839;-87
2023/07/11 06:33:22;;;;;;;;;5.33;5.33;;;;;28.18;42.54;100661.44;4877229;29;44818;-87
2023/07/11 06:35:49;;;;;;;;;4.00;4.00;;;;;28.30;42.00;100674.38;4875020;29;44840;-87
2023/07/11 06:38:25;;;;;;;;;3.67;3.33;;;;;28.59;41.64;100684.50;4872671;29;45609;-87
2023/07/11 06:41:03;;;;;;;;;6.00;5.00;;;;;28.64;41.97;100677.78;4855665;29;45428;-87
2023/07/11 06:43:29;;;;;;;;;2.67;2.67;;;;;28.68;41.57;100672.97;4852691;29;45427;-86
2023/07/11 06:46:04;;;;;;;;;3.33;3.33;;;;;28.81;41.21;100679.44;4871936;29;45418;-89
2023/07/11 06:48:32;;;;;;;;;3.67;3.67;;;;;28.80;42.11;100677.66;4863163;29;47100;-85
2023/07/11 06:54:57;;;;;;;;;4.33;4.33;;;;;29.07;41.14;100666.84;4869732;29;45203;-85
2023/07/11 06:57:28;;;;;;;;;4.00;3.00;;;;;29.08;40.97;100665.84;4871841;29;45581;-86
2023/07/11 07:00:16;;;;;;;;;4.67;4.67;;;;;29.09;40.44;100644.84;4856677;29;45593;-84
2023/07/11 07:02:56;;;;;;;;;3.00;3.00;;;;;29.19;40.41;100662.44;4857252;29;44855;-84
2023/07/11 07:06:05;;;;;;;;;4.33;4.00;;;;;29.15;40.26;100628.03;4875437;29;45507;-84
2023/07/11 07:08:36;;;;;;;;;3.33;3.33;;;;;29.21;40.43;100632.19;4759588;29;45471;-84
2023/07/11 07:11:11;;;;;;;;;4.67;4.00;;;;;29.34;40.14;100626.81;4763881;29;47164;-84
2023/07/11 07:13:53;;;;;;;;;3.33;3.33;;;;;29.46;39.95;100636.94;4746059;29;45587;-84
2023/07/11 07:16:21;;;;;;;;;5.33;3.67;;;;;29.75;39.93;100667.03;4732209;29;45447;-84
2023/07/11 07:22:15;;;;;;;;;3.00;2.00;;;;;29.66;39.68;100650.19;4757207;29;45496;-85
2023/07/11 07:25:07;;;;;;;;;4.00;3.00;;;;;29.82;39.90;100655.56;4757413;29;45921;-86
2023/07/11 07:27:33;;;;;;;;;1.33;1.33;;;;;29.83;39.96;100673.75;4751518;29;45488;-84
2023/07/11 07:30:10;;;;;;;;;3.00;3.00;;;;;29.99;39.52;100662.63;4766843;29;45318;-85
2023/07/11 07:32:58;;;;;;;;;;;;;;;;;;;;;
2023/07/11 07:39:19;;;;;;;;;5.00;5.00;;;;;29.91;38.89;100600.09;4734136;29;45490;-85
2023/07/11 07:42:04;;;;;;;;;6.33;6.33;;;;;30.28;39.05;100646.91;4742779;30;45684;-85
2023/07/11 07:44:36;;;;;;;;;3.00;3.00;;;;;30.07;39.07;100609.97;4788385;29;46848;-85
2023/07/11 07:50:55;;;;;;;;;4.00;3.33;;;;;30.46;39.01;100643.84;4789145;29;45535;-85
2023/07/11 08:00:47;;;;;;;;;;;;;;;;;;;;;
2023/07/11 08:03:58;;;;;;;;;;;;;;;;;;;;;
2023/07/11 08:06:51;;;;;;;;;4.00;4.00;;;;;30.74;39.09;100584.22;4785148;29;64777;-85
2023/07/11 08:10:15;;;;;;;;;;;;;;;;;;;;;
2023/07/11 08:13:21;;;;;;;;;3.00;3.00;;;;;30.95;38.52;100590.06;4708648;30;72534;-85
2023/07/11 08:15:50;;;;;;;;;5.00;5.00;;;;;31.05;38.71;100607.63;4710924;30;45013;-86
2023/07/11 08:18:29;;;;;;;;;5.33;4.00;;;;;30.88;38.32;100574.03;4716294;30;45028;-86
2023/07/11 08:20:57;;;;;;;;;4.67;4.67;;;;;30.88;38.37;100568.53;4730943;30;48109;-86
2023/07/11 08:23:32;;;;;;;;;5.67;4.00;;;;;30.98;38.52;100570.59;4711549;30;44838;-85
2023/07/11 08:25:57;;;;;;;;;4.00;4.00;;;;;31.08;38.16;100585.38;4716439;30;45411;-86
2023/07/11 08:29:32;;;;;;;;;5.00;5.00;;;;;31.17;38.11;100572.81;4748129;29;45778;-87
2023/07/11 08:32:38;;;;;;;;;4.67;4.00;;;;;31.36;38.15;100588.81;4730252;30;45986;-86
2023/07/11 08:35:23;;;;;;;;;4.00;4.00;;;;;31.41;38.46;100589.34;4733580;30;45586;-88
2023/07/11 08:39:07;;;;;;;;;;;;;;;;;;;;;
2023/07/11 08:42:07;;;;;;;;;3.00;3.00;;;;;31.28;37.96;100549.03;4814002;29;66298;-86
2023/07/11 08:45:01;;;;;;;;;3.67;3.67;;;;;31.58;38.30;100575.22;4840121;29;45951;-87
2023/07/11 08:51:38;;;;;;;;;4.00;4.00;;;;;31.62;37.63;100592.38;4785078;29;45526;-87
2023/07/11 08:54:30;;;;;;;;;9.33;7.33;;;;;31.44;37.99;100547.88;4774143;29;44999;-86
2023/07/11 08:57:07;;;;;;;;;4.00;4.00;;;;;31.50;38.67;100570.31;4840738;29;46952;-85
2023/07/11 09:03:32;;;;;;;;;7.00;5.33;;;;;31.49;38.81;100565.81;4851552;29;45342;-85
2023/07/11 09:06:11;;;;;;;;;4.00;4.00;;;;;31.38;38.80;100540.13;4845371;29;45383;-87
2023/07/11 09:13:05;;;;;;;;;5.00;5.00;;;;;31.64;38.77;100563.75;4761797;29;45552;-86
2023/07/11 09:15:59;;;;;;;;;5.00;5.00;;;;;31.45;38.16;100524.91;4746579;30;45588;-85
2023/07/11 09:26:01;;;;;;;;;6.00;5.67;;;;;31.63;38.30;100542.78;4762933;29;45447;-86
2023/07/11 09:36:03;;;;;;;;;5.33;5.33;;;;;31.66;38.46;100534.25;4824126;29;45504;-88
2023/07/11 09:59:11;;;;;;;;;5.33;5.33;;;;;31.74;37.59;100505.31;4855038;29;45368;-87
2023/07/11 10:02:33;;;;;;;;;7.00;6.00;;;;;31.90;37.50;100522.34;4872844;29;45547;-89
2023/07/11 10:19:48;;;;;;;;;;;;;;;;;;;;;
2023/07/11 10:23:03;;;;;;;;;5.00;5.00;;;;;31.95;36.96;100476.09;4756414;29;68647;-87
2023/07/11 10:26:19;;;;;;;;;2.67;2.67;;;;;31.91;36.79;100474.56;4781515;29;45565;-88
2023/07/11 10:29:39;;;;;;;;;;;;;;;;;;;;;
2023/07/11 10:32:36;;;;;;;;;6.00;6.00;;;;;31.99;36.46;100466.59;4725881;30;72020;-88
2023/07/11 10:35:15;;;;;;;;;6.00;6.00;;;;;32.03;37.00;100470.88;4731229;29;44798;-88
2023/07/11 10:45:30;;;;;;;;;;;;;;;;;;;;;
2023/07/11 10:48:32;;;;;;;;;6.00;6.00;;;;;32.19;37.27;100436.63;4790729;29;69265;-86
2023/07/11 10:51:22;;;;;;;;;3.33;3.33;;;;;32.40;36.33;100465.16;4816630;29;44909;-86
2023/07/11 10:54:11;;;;;;;;;4.00;4.00;;;;;32.44;36.50;100460.25;4801554;29;45511;-84
2023/07/11 10:57:16;;;;;;;;;;;;;;;;;;;;;
2023/07/11 10:59:52;;;;;;;;;3.00;3.00;;;;;32.39;36.26;100419.34;4850700;29;68256;-85
2023/07/11 11:42:31;;;;;;;;;6.67;6.67;;;;;32.91;35.48;100355.41;4694478;30;44917;-85
2023/07/11 11:49:07;;;;;;;;;5.67;5.00;;;;;33.00;35.57;100343.59;4696349;29;45873;-86
2023/07/11 11:52:18;;;;;;;;;5.00;5.00;;;;;33.36;36.03;100368.97;4712966;30;45816;-86
2023/07/11 13:24:20;;;;;;;;;4.00;4.00;;;;;35.17;32.60;100275.06;3288906;23;47421;-87
2023/07/11 13:50:30;;;;;;;;;4.33;4.33;;;;;36.74;31.36;100261.28;4646143;27;45388;-85
2023/07/11 14:13:38;;;;;;;;;3.00;3.00;;;;;38.90;27.45;100219.38;4903790;23;45657;-86
2023/07/11 14:16:31;;;;;;;;;2.67;2.67;;;;;39.60;27.67;100241.00;4816337;29;45267;-86
2023/07/11 14:19:38;;;;;;;;;2.00;2.00;;;;;41.26;26.44;100234.16;4765632;29;45270;-86
2023/07/11 14:22:31;;;;;;;;;2.00;2.00;;;;;41.19;25.61;100217.31;4765495;29;44845;-86
2023/07/11 14:25:30;;;;;;;;;3.00;3.00;;;;;40.55;25.92;100220.47;4781760;29;45391;-86
2023/07/11 14:35:08;;;;;;;;;2.33;2.33;;;;;39.73;26.44;100229.28;5280421;23;45863;-86
2023/07/11 14:37:55;;;;;;;;;3.00;3.00;;;;;41.61;24.58;100198.16;4860057;29;45586;-86
2023/07/11 14:40:30;;;;;;;;;1.33;1.33;;;;;43.07;24.30;100185.75;4876362;29;45535;-85
2023/07/11 14:42:59;;;;;;;;;3.67;2.33;;;;;44.71;23.19;100203.66;4859438;29;45414;-85
2023/07/11 14:46:17;;;;;;;;;;;;;;;;;;;;;
2023/07/11 15:53:11;;;;;;;;;2.67;2.67;;;;;51.85;14.86;100179.13;4821325;29;45364;-85
2023/07/11 15:55:42;;;;;;;;;1.33;1.33;;;;;51.17;14.95;100150.97;4823370;29;45509;-86
2023/07/11 15:58:17;;;;;;;;;3.00;3.00;;;;;50.76;15.55;100151.19;4806959;29;44800;-86
2023/07/11 16:00:44;;;;;;;;;0.00;0.00;;;;;50.11;15.66;100141.28;4819098;29;45509;-85
2023/07/11 16:03:21;;;;;;;;;2.00;2.00;;;;;49.85;16.11;100135.09;4818826;29;45553;-86
2023/07/11 16:05:54;;;;;;;;;1.00;1.00;;;;;49.84;15.81;100130.59;4821030;29;45813;-85
2023/07/11 16:08:34;;;;;;;;;1.67;1.67;;;;;50.07;15.90;100117.41;4821400;29;45596;-85
2023/07/11 16:11:11;;;;;;;;;2.00;2.00;;;;;50.87;15.71;100135.25;4806702;29;44893;-85
2023/07/11 16:13:54;;;;;;;;;2.00;2.00;;;;;51.39;15.15;100137.72;4792595;29;45624;-85
2023/07/11 16:16:21;;;;;;;;;2.00;1.67;;;;;51.13;15.36;100127.13;4805804;29;45434;-85
2023/07/11 16:18:47;;;;;;;;;1.67;1.67;;;;;50.89;14.52;100126.50;4805670;29;45437;-84
2023/07/11 16:21:19;;;;;;;;;2.33;1.33;;;;;50.43;14.63;100112.44;4804916;29;44866;-85
2023/07/11 16:23:48;;;;;;;;;4.00;2.00;;;;;49.95;15.46;100110.97;4806306;29;45168;-86
2023/07/11 16:26:28;;;;;;;;;3.33;2.00;;;;;49.96;15.78;100115.53;4804198;29;44976;-85
2023/07/11 16:28:55;;;;;;;;;0.67;0.67;;;;;49.44;15.52;100116.47;4800921;29;45453;-85
2023/07/11 16:31:21;;;;;;;;;2.00;1.00;;;;;48.55;15.55;100114.63;4845451;29;45585;-86
2023/07/11 16:33:51;;;;;;;;;1.67;1.67;;;;;48.74;16.23;100117.38;4861666;29;45398;-86
2023/07/11 16:36:20;;;;;;;;;2.00;2.00;;;;;49.22;15.56;100093.66;4829126;29;44850;-86
2023/07/11 16:38:50;;;;;;;;;3.00;2.33;;;;;50.31;16.10;100120.13;4843124;29;45358;-85
2023/07/11 16:41:16;;;;;;;;;1.33;1.33;;;;;50.07;15.55;100091.13;4843721;29;45575;-86
2023/07/11 16:43:42;;;;;;;;;1.00;1.00;;;;;49.78;15.44;100106.16;4844368;29;45353;-85
2023/07/11 16:46:17;;;;;;;;;1.00;1.00;;;;;49.79;15.69;100088.06;4844526;29;45417;-86
2023/07/11 16:48:42;;;;;;;;;2.00;2.00;;;;;49.69;14.88;100082.19;4847316;29;44834;-86
2023/07/11 16:51:20;;;;;;;;;2.67;2.00;;;;;49.72;15.34;100095.84;4862891;29;45002;-86
2023/07/11 16:53:48;;;;;;;;;2.67;2.67;;;;;49.75;15.23;100097.31;4879811;29;45254;-85
2023/07/11 16:56:21;;;;;;;;;2.00;2.00;;;;;49.39;15.65;100090.91;4844736;29;45423;-85
2023/07/11 16:58:50;;;;;;;;;1.00;1.00;;;;;48.11;15.46;100096.28;4854305;29;45722;-86
2023/07/11 17:01:23;;;;;;;;;2.00;2.00;;;;;47.89;15.64;100089.19;4854027;29;45345;-85
2023/07/11 17:03:49;;;;;;;;;1.00;1.00;;;;;48.21;16.27;100077.66;4853818;29;45741;-85
2023/07/11 17:06:27;;;;;;;;;2.67;2.67;;;;;48.49;15.72;100084.59;4853824;29;45442;-85
2023/07/11 17:08:58;;;;;;;;;0.67;0.67;;;;;48.33;15.17;100043.00;4855448;29;44924;-84
2023/07/11 17:11:24;;;;;;;;;1.00;1.00;;;;;47.44;15.54;100052.97;4852792;29;45476;-85
2023/07/11 17:13:54;;;;;;;;;2.00;2.00;;;;;46.22;16.60;100084.56;4837387;29;47117;-84
2023/07/11 17:16:33;;;;;;;;;2.00;2.00;;;;;44.38;17.22;100083.03;4853495;29;45402;-84
2023/07/11 17:21:51;;;;;;;;;6.00;3.33;;;;;41.26;19.45;100077.91;4856533;29;45516;-84
2023/07/11 17:24:22;;;;;;;;;3.67;2.67;;;;;40.41;20.56;100071.66;4856425;29;45419;-85
2023/07/11 17:26:52;;;;;;;;;2.00;2.00;;;;;39.71;21.24;100044.88;4857197;29;44793;-85
2023/07/11 17:29:28;;;;;;;;;3.00;3.00;;;;;39.18;21.79;100067.75;4857732;29;44829;-84
2023/07/11 17:31:53;;;;;;;;;2.00;2.00;;;;;38.55;22.53;100038.09;4857216;29;45433;-86
2023/07/11 17:34:22;;;;;;;;;2.00;2.00;;;;;38.23;23.42;100039.84;4858315;29;45480;-85
2023/07/11 17:36:49;;;;;;;;;1.00;1.00;;;;;37.80;23.74;100034.44;4859113;29;45451;-86
2023/07/11 17:39:20;;;;;;;;;2.00;2.00;;;;;37.44;24.43;100042.16;4859515;29;45366;-84
2023/07/11 17:42:13;;;;;;;;;4.00;3.00;;;;;37.13;25.36;100055.78;4842504;29;44830;-85
2023/07/11 17:44:43;;;;;;;;;3.00;3.00;;;;;36.57;25.84;100058.03;4846252;29;46795;-84
2023/07/11 17:47:21;;;;;;;;;4.67;1.00;;;;;36.28;26.37;100053.69;4856927;29;45413;-85
2023/07/11 17:49:48;;;;;;;;;1.67;1.67;;;;;36.20;26.62;100078.56;4866890;29;44770;-84
2023/07/11 17:52:18;;;;;;;;;6.00;6.00;;;;;36.08;26.71;100052.09;4863073;29;44832;-85
2023/07/11 17:54:44;;;;;;;;;3.33;2.00;;;;;35.82;27.35;100036.31;4877374;29;48489;-84
2023/07/11 17:57:12;;;;;;;;;2.33;2.33;;;;;35.76;27.00;100059.97;4878432;29;45257;-86
2023/07/11 17:59:39;;;;;;;;;3.00;3.00;;;;;35.39;27.36;100021.34;4860532;29;44724;-84
2023/07/11 18:02:21;;;;;;;;;4.00;3.00;;;;;35.50;27.47;100058.97;4877392;29;45590;-86
2023/07/11 18:04:50;;;;;;;;;2.33;2.00;;;;;34.96;27.81;100039.47;4877242;29;46834;-85
2023/07/11 18:07:22;;;;;;;;;2.00;2.00;;;;;34.64;28.42;100025.06;4860356;29;44799;-85